Latest Weather Observations for Devonport Airport

IDT60801

Issued at 12:35 pm EDT Saturday 1 November 2014 (issued every 30 minutes, with the page automatically refreshed every 10 minutes)

About weather observations | Map of weather stations | Latest weather observations for TAS | Other Formats
Station Details ID: 091126 Name: DEVONPORT AIRPORT Lat: -41.17 Lon: 146.43 Height: 8.0 m
Data from the previous 72 hours. | See also: Recent months at Devonport Airport
Date/Time
EDT
Temp
°C
App
Temp
°C
Dew
Point
Rel
Hum
%
Delta-T
°C
Wind Press
QNH
hPa
Press
MSL
hPa
Rain
since 9 am
mm
Dir
 
Spd
km/h
Gust
km/h
Spd
kts
Gust
kts
01/12:30pm 12.9 6.4 9.0 77 2.0 W 33 44 18 24 997.1 997.1 0.4
01/12:16pm 11.6 3.6 7.3 75 2.1 W 39 57 21 31 997.3 997.3 0.0
01/12:05pm 13.2 5.7 6.1 62 3.4 W 35 44 19 24 997.1 997.1 0.0
01/12:00pm 14.4 6.5 7.7 64 3.3 WNW 39 48 21 26 996.8 996.8 0.0
01/11:30am 15.2 7.9 8.9 66 3.2 NW 37 50 20 27 996.8 996.8 0.0
01/11:00am 15.0 8.1 7.3 60 3.8 W 33 46 18 25 997.1 997.1 0.0
01/10:30am 15.0 6.7 6.3 56 4.2 WNW 39 46 21 25 996.7 996.7 0.0
01/10:00am 13.9 7.2 7.2 64 3.3 WNW 32 41 17 22 996.4 996.4 0.0
01/09:30am 13.0 5.2 4.9 58 3.7 W 35 46 19 25 996.1 996.1 0.0
01/09:00am 13.5 5.4 6.8 64 3.3 W 39 54 21 29 995.7 995.7 3.4
01/08:30am 13.1 7.3 8.0 71 2.5 W 28 39 15 21 995.1 995.1 3.4
01/08:00am 12.8 7.0 9.3 79 1.8 WNW 30 39 16 21 994.7 994.7 3.2
01/07:30am 13.2 7.4 10.7 85 1.3 WNW 32 41 17 22 994.4 994.4 3.2
01/07:00am 13.0 6.9 11.6 91 0.8 NW 35 44 19 24 994.4 994.4 3.2
01/06:30am 12.9 7.3 11.6 92 0.7 NW 32 44 17 24 993.8 993.8 3.2
01/06:07am 12.9 6.3 11.3 90 0.8 NW 37 48 20 26 993.8 993.8 3.2
01/06:00am 12.9 6.7 11.3 90 0.9 NW 35 48 19 26 993.8 993.8 3.2
01/05:54am 13.0 7.5 11.7 92 0.7 NW 32 43 17 23 993.9 993.9 3.2
01/05:30am 12.7 7.0 11.3 91 0.7 WNW 32 37 17 20 993.0 993.0 3.2
01/05:00am 13.1 7.6 11.8 92 0.7 NW 32 39 17 21 994.1 994.1 1.8
01/04:30am 13.5 8.9 12.4 93 0.6 NW 28 35 15 19 993.4 993.4 1.0
01/04:00am 14.0 11.0 12.4 90 0.9 NW 20 24 11 13 993.7 993.7 0.6
01/03:30am 14.0 11.1 12.2 89 1.0 NW 19 24 10 13 993.9 993.9 0.6
01/03:00am 13.6 12.0 11.7 88 1.0 WNW 11 15 6 8 993.7 993.7 0.6
01/02:30am 13.3 11.3 11.5 89 1.0 W 13 17 7 9 995.1 995.1 0.6
01/02:00am 13.1 11.7 11.0 87 1.1 WSW 9 15 5 8 994.8 994.8 0.6
01/01:30am 13.0 11.3 11.2 89 0.9 S 11 15 6 8 994.3 994.3 0.6
01/01:00am 12.8 10.7 11.0 89 1.0 S 13 17 7 9 994.2 994.2 0.6
01/12:30am 13.0 10.5 11.2 89 0.9 SSE 15 19 8 10 995.2 995.2 0.6
01/12:00am 13.3 10.9 11.4 88 1.0 SSW 15 19 8 10 996.3 996.3 0.6
 
Date/Time
EDT
Temp
°C
App
Temp
°C
Dew
Point
Rel
Hum
%
Delta-T
°C
Wind Press
QNH
hPa
Press
MSL
hPa
Rain
since 9 am
mm
Dir
 
Spd
km/h
Gust
km/h
Spd
kts
Gust
kts
31/11:30pm 13.2 10.8 11.3 88 1.0 SE 15 22 8 12 996.3 996.3 0.6
31/11:00pm 13.5 11.5 11.4 87 1.1 SSW 13 17 7 9 997.4 997.4 0.6
31/10:30pm 13.3 10.9 11.5 89 1.0 SSE 15 19 8 10 997.2 997.2 0.6
31/10:00pm 13.5 11.5 11.6 88 1.0 S 13 17 7 9 998.0 998.0 0.6
31/09:30pm 13.3 11.7 11.5 89 1.0 S 11 15 6 8 998.7 998.7 0.6
31/09:00pm 13.2 12.3 11.4 89 1.0 S 7 9 4 5 999.0 999.0 0.6
31/08:30pm 13.2 12.0 11.6 90 0.9 ESE 9 11 5 6 999.5 999.5 0.6
31/08:00pm 13.5 11.2 11.7 89 1.0 ENE 15 19 8 10 999.8 999.8 0.6
31/07:30pm 13.9 11.2 11.8 87 1.1 ENE 17 20 9 11 1000.2 1000.2 0.6
31/07:00pm 14.1 11.9 12.0 87 1.1 NE 15 19 8 10 1000.6 1000.6 0.6
31/06:30pm 14.1 11.4 11.6 85 1.3 NE 17 19 9 10 1000.8 1000.8 0.6
31/06:02pm 14.6 11.9 11.6 82 1.6 NE 17 20 9 11 1001.5 1001.5 0.6
31/06:00pm 14.7 12.0 11.8 83 1.6 NE 17 20 9 11 1001.5 1001.5 0.6
31/05:43pm 15.4 12.9 12.2 81 1.7 NE 17 22 9 12 1001.6 1001.6 0.6
31/05:30pm 15.5 13.4 12.3 81 1.7 ENE 15 20 8 11 1001.5 1001.5 0.6
31/05:12pm 14.7 12.0 11.7 82 1.6 ENE 17 20 9 11 1002.1 1002.1 0.6
31/05:00pm 15.2 12.6 12.0 81 1.7 ENE 17 22 9 12 1002.2 1002.2 0.6
31/04:30pm 14.8 13.0 11.0 78 2.0 E 11 15 6 8 1002.9 1002.9 0.6
31/04:00pm 15.0 14.3 11.4 79 1.9 ENE 6 13 3 7 1004.2 1004.2 0.6
31/03:32pm 14.5 13.3 11.5 82 1.6 N 9 13 5 7 1004.5 1004.5 0.6
31/03:30pm 14.6 13.3 11.2 80 1.8 N 9 11 5 6 1004.5 1004.5 0.6
31/03:00pm 14.5 13.0 11.8 84 1.5 N 11 15 6 8 1004.9 1004.9 0.6
31/02:34pm 14.7 12.0 11.8 83 1.6 N 17 20 9 11 1005.1 1005.1 0.6
31/02:30pm 15.5 12.8 13.0 85 1.4 N 19 20 10 11 1005.1 1005.1 0.6
31/02:00pm 14.2 12.4 12.2 88 1.1 N 13 17 7 9 1005.6 1005.6 0.6
31/01:30pm 13.9 12.7 11.6 86 1.2 N 9 15 5 8 1005.6 1005.6 0.6
31/01:23pm 13.6 12.4 11.7 88 1.0 N 9 11 5 6 1005.7 1005.7 0.6
31/01:05pm 14.0 13.4 12.2 89 1.0 NNW 7 11 4 6 1006.1 1006.1 0.6
31/01:00pm 13.6 12.8 11.7 88 1.0 N 7 11 4 6 1006.3 1006.3 0.6
31/12:35pm 12.7 11.0 11.3 91 0.7 NW 11 15 6 8 1006.9 1006.9 0.6
31/12:30pm 12.6 10.9 11.2 91 0.7 NNW 11 13 6 7 1006.9 1006.9 0.6
31/12:20pm 12.7 10.9 10.9 89 0.9 NW 11 13 6 7 1007.0 1007.0 0.6
31/12:00pm 13.1 10.9 10.8 86 1.2 WNW 13 17 7 9 1007.3 1007.3 0.6
31/11:58am 13.2 11.1 11.1 87 1.1 WNW 13 17 7 9 1007.4 1007.4 0.6
31/11:30am 13.4 10.9 11.1 86 1.2 NW 15 17 8 9 1007.4 1007.4 0.6
31/11:00am 12.9 9.4 10.8 87 1.1 NW 20 24 11 13 1008.0 1008.0 0.6
31/10:30am 12.7 10.5 10.8 88 1.0 WNW 13 17 7 9 1008.3 1008.3 0.6
31/10:00am 12.5 10.6 10.6 88 1.0 NW 11 13 6 7 1008.3 1008.3 0.4
31/09:30am 12.4 11.2 10.3 87 1.1 WNW 7 9 4 5 1008.3 1008.3 0.2
31/09:00am 12.3 11.5 9.5 83 1.4 NW 4 7 2 4 1008.2 1008.2 0.0
31/08:30am 12.4 10.3 9.6 83 1.4 WNW 11 13 6 7 1008.9 1008.9 0.0
31/08:00am 12.3 9.6 9.1 81 1.6 WNW 13 15 7 8 1008.9 1008.9 0.0
31/07:30am 12.2 9.7 9.6 84 1.3 WNW 13 17 7 9 1008.5 1008.5 0.0
31/07:00am 12.2 8.5 9.4 83 1.4 WNW 19 22 10 12 1008.8 1008.8 0.0
31/06:30am 12.1 8.2 9.3 83 1.4 WNW 20 28 11 15 1008.7 1008.7 0.0
31/06:00am 11.4 8.0 9.1 86 1.2 W 17 20 9 11 1008.8 1008.8 0.0
31/05:30am 11.4 7.5 9.3 87 1.1 W 20 30 11 16 1008.7 1008.7 0.0
31/05:00am 11.6 7.4 9.7 88 1.0 WNW 22 26 12 14 1008.6 1008.6 0.0
31/04:30am 11.6 8.0 9.9 89 0.9 WNW 19 22 10 12 1008.8 1008.8 0.0
31/04:00am 11.8 8.2 9.9 88 1.0 WNW 19 20 10 11 1009.1 1009.1 0.0
31/03:30am 11.6 7.9 10.0 90 0.8 WNW 20 24 11 13 1009.3 1009.3 0.0
31/03:00am 11.8 7.4 10.4 91 0.7 WNW 24 30 13 16 1009.7 1009.7 0.0
31/02:30am 11.9 7.0 9.8 87 1.1 WNW 26 33 14 18 1009.7 1009.7 0.0
31/02:00am 12.1 6.7 9.5 84 1.3 WNW 28 35 15 19 1010.0 1010.0 0.0
31/01:30am 12.1 6.4 9.7 85 1.2 WNW 30 37 16 20 1010.4 1010.4 0.0
31/01:00am 12.1 6.7 9.5 84 1.3 WNW 28 35 15 19 1010.7 1010.7 0.0
31/12:30am 12.2 6.8 9.4 83 1.4 WNW 28 33 15 18 1010.8 1010.8 0.0
31/12:00am 12.4 7.4 9.6 83 1.4 WNW 26 33 14 18 1010.9 1010.9 0.0
 
Date/Time
EDT
Temp
°C
App
Temp
°C
Dew
Point
Rel
Hum
%
Delta-T
°C
Wind Press
QNH
hPa
Press
MSL
hPa
Rain
since 9 am
mm
Dir
 
Spd
km/h
Gust
km/h
Spd
kts
Gust
kts
30/11:30pm 12.5 7.6 9.9 84 1.3 WNW 26 32 14 17 1010.8 1010.8 0.0
30/11:00pm 12.5 8.0 10.2 86 1.2 WNW 24 32 13 17 1011.1 1011.1 0.0
30/10:30pm 12.9 7.8 10.6 86 1.2 WNW 28 32 15 17 1011.5 1011.5 0.0
30/10:00pm 13.1 8.0 10.5 84 1.4 WNW 28 33 15 18 1011.4 1011.4 0.0
30/09:30pm 13.6 8.3 10.0 79 1.9 WNW 28 33 15 18 1011.2 1011.2 0.0
30/09:00pm 13.8 9.3 10.2 79 1.9 WNW 24 30 13 16 1010.8 1010.8 0.0
30/08:30pm 13.9 9.0 9.9 77 2.1 WNW 26 30 14 16 1010.7 1010.7 0.0
30/08:00pm 14.1 9.2 10.1 77 2.1 WNW 26 32 14 17 1010.3 1010.3 0.0
30/07:30pm 14.4 8.8 10.0 75 2.3 WNW 30 39 16 21 1010.0 1010.0 0.0
30/07:00pm 14.8 8.9 10.6 76 2.2 WNW 32 39 17 21 1009.7 1009.7 0.0
30/06:30pm 14.7 8.9 10.9 78 2.0 NW 32 39 17 21 1009.5 1009.5 0.0
30/06:00pm 15.4 9.5 10.6 73 2.5 WNW 32 41 17 22 1009.6 1009.6 0.0
30/05:30pm 15.1 8.7 10.7 75 2.3 NW 35 44 19 24 1009.4 1009.4 0.0
30/05:00pm 16.1 9.3 10.6 70 2.9 WNW 37 46 20 25 1009.0 1009.0 0.0
30/04:30pm 14.8 8.0 11.8 82 1.6 NW 39 50 21 27 1009.1 1009.1 0.0
30/04:00pm 15.3 9.6 11.7 79 1.9 NW 33 44 18 24 1008.9 1008.9 0.0
30/03:30pm 15.2 8.6 11.4 78 2.0 NW 37 48 20 26 1008.9 1008.9 0.0
30/03:00pm 16.6 9.9 12.2 75 2.4 NW 39 50 21 27 1008.9 1008.9 0.0
30/02:30pm 16.4 9.7 12.2 76 2.3 NW 39 48 21 26 1008.9 1008.9 0.0
30/02:00pm 15.7 8.8 11.7 77 2.2 NW 39 48 21 26 1009.2 1009.2 0.0
30/01:30pm 15.8 9.5 12.4 80 1.9 NW 37 46 20 25 1009.3 1009.3 0.0
30/01:00pm 15.7 9.3 12.1 79 2.0 NW 37 46 20 25 1009.3 1009.3 0.0
30/12:30pm 15.3 8.8 11.7 79 1.9 NW 37 44 20 24 1009.6 1009.6 0.0
30/12:00pm 15.5 9.3 11.3 76 2.3 NW 35 44 19 24 1009.7 1009.7 0.0
30/11:30am 15.4 9.3 11.8 79 1.9 NW 35 46 19 25 1010.0 1010.0 0.0
30/11:00am 14.8 8.9 11.0 78 2.0 NW 33 43 18 23 1010.3 1010.3 0.0
30/10:30am 13.9 8.1 10.9 82 1.6 NW 32 43 17 23 1010.5 1010.5 0.0
30/10:00am 14.7 8.5 11.3 80 1.8 NW 35 43 19 23 1010.6 1010.6 0.0
30/09:30am 14.1 8.1 10.7 80 1.8 NW 33 41 18 22 1010.8 1010.8 0.0
30/09:00am 13.2 7.2 10.0 81 1.6 NW 32 39 17 21 1010.8 1010.8 0.0
30/08:30am 12.9 7.1 9.5 80 1.7 WNW 30 39 16 21 1010.7 1010.7 0.0
30/08:00am 12.6 7.6 9.6 82 1.5 WNW 26 32 14 17 1010.7 1010.7 0.0
30/07:30am 12.0 7.6 8.8 81 1.6 WNW 22 28 12 15 1010.8 1010.8 0.0
30/07:00am 11.5 6.7 8.9 84 1.3 WNW 24 32 13 17 1010.4 1010.4 0.0
30/06:30am 11.5 5.6 8.9 84 1.3 WNW 30 37 16 20 1010.1 1010.1 0.0
30/06:00am 11.4 5.4 8.8 84 1.3 WNW 30 39 16 21 1009.9 1009.9 0.0
30/05:30am 11.4 5.4 8.8 84 1.3 WNW 30 37 16 20 1009.7 1009.7 0.0
30/05:00am 11.5 5.1 8.7 83 1.4 WNW 32 35 17 19 1009.6 1009.6 0.0
30/04:30am 11.3 5.3 8.7 84 1.3 WNW 30 35 16 19 1009.8 1009.8 0.0
30/04:00am 11.4 5.4 8.8 84 1.3 WNW 30 35 16 19 1010.1 1010.1 0.0
30/03:30am 11.6 5.3 8.8 83 1.4 WNW 32 39 17 21 1010.0 1010.0 0.0
30/03:00am 11.8 6.2 8.6 81 1.6 WNW 28 35 15 19 1010.0 1010.0 0.0
30/02:30am 11.8 5.5 9.0 83 1.4 WNW 32 41 17 22 1010.0 1010.0 0.0
30/02:00am 12.0 5.5 9.0 82 1.5 WNW 33 43 18 23 1010.2 1010.2 0.0
30/01:30am 12.4 6.0 9.2 81 1.6 WNW 33 41 18 22 1010.3 1010.3 0.0
30/01:00am 12.3 6.5 9.5 83 1.4 WNW 30 33 16 18 1010.6 1010.6 0.0
30/12:30am 12.4 7.2 10.1 86 1.2 WNW 28 37 15 20 1010.9 1010.9 0.0
30/12:00am 12.3 7.8 10.2 87 1.1 WNW 24 30 13 16 1011.1 1011.1 0.0
 
Date/Time
EDT
Temp
°C
App
Temp
°C
Dew
Point
Rel
Hum
%
Delta-T
°C
Wind Press
QNH
hPa
Press
MSL
hPa
Rain
since 9 am
mm
Dir
 
Spd
km/h
Gust
km/h
Spd
kts
Gust
kts
29/11:30pm 12.4 6.8 10.1 86 1.2 WNW 30 39 16 21 1011.2 1011.2 0.0
29/11:00pm 13.0 7.5 10.5 85 1.3 WNW 30 33 16 18 1011.3 1011.3 0.0
29/10:30pm 12.9 7.9 11.0 88 1.0 WNW 28 35 15 19 1011.4 1011.4 0.0
29/10:00pm 12.9 6.8 10.6 86 1.2 WNW 33 43 18 23 1011.3 1011.3 0.0
29/09:30pm 13.4 7.6 10.8 84 1.4 WNW 32 43 17 23 1011.5 1011.5 0.0
29/09:00pm 13.3 6.9 10.8 85 1.3 WNW 35 44 19 24 1011.2 1011.2 0.0
29/08:30pm 13.1 6.7 10.6 85 1.3 WNW 35 44 19 24 1011.0 1011.0 0.0
29/08:00pm 13.4 7.2 10.0 80 1.8 WNW 33 43 18 23 1011.1 1011.1 0.0
29/07:30pm 13.5 7.1 10.7 83 1.5 WNW 35 43 19 23 1011.0 1011.0 0.0
29/07:00pm 14.3 8.3 10.7 79 1.9 WNW 33 41 18 22 1010.8 1010.8 0.0
29/06:30pm 14.7 7.1 10.5 76 2.2 WNW 41 50 22 27 1010.6 1010.6 0.0
29/06:00pm 14.6 8.5 10.6 77 2.1 WNW 33 43 18 23 1010.7 1010.7 0.0
29/05:30pm 15.1 8.1 11.3 78 2.0 NW 39 50 21 27 1010.7 1010.7 0.0
29/05:00pm 14.7 6.7 11.1 79 1.9 NW 44 54 24 29 1010.6 1010.6 0.0
29/04:30pm 14.7 6.8 11.3 80 1.8 NW 44 54 24 29 1010.8 1010.8 0.0
29/04:00pm 15.2 6.8 11.2 77 2.1 NW 46 57 25 31 1010.9 1010.9 0.0
29/03:30pm 14.3 6.2 10.7 79 1.9 NW 44 59 24 32 1011.3 1011.3 0.0
29/03:00pm 15.2 7.3 10.8 75 2.3 NW 43 56 23 30 1011.5 1011.5 0.0
29/02:30pm 15.4 8.0 11.2 76 2.2 NW 41 50 22 27 1011.9 1011.9 0.0
29/02:00pm 14.5 8.0 10.5 77 2.1 NW 35 46 19 25 1012.2 1012.2 0.0
29/01:30pm 15.2 8.1 11.0 76 2.2 NW 39 46 21 25 1012.6 1012.6 0.0
29/01:00pm 14.1 6.7 9.7 75 2.3 NW 39 46 21 25 1012.6 1012.6 0.0

Other Formats:

Comma delimited format used in spreadsheet applications
http://www.bom.gov.au/fwo/IDT60801/IDT60801.95960.axf

JavaScript Object Notation format (JSON) in row-major order
http://www.bom.gov.au/fwo/IDT60801/IDT60801.95960.json